Climatologie pour Saint-Brevin les Pins
Jour • Résumé pour mars 16, 2017 Système :  Métrique    Anglais   Mixte
« - 1 jour
+ 1 jour »
Jour Semaine Mois Année Personnalisé
  Maximum : Minimum : Moyenne :
Température sous abri : -17.8 °C -15.6 °C -12.7 °C
Point de rosée : -17.8 °C -15.7 °C -13.6 °C
Humidité : Humidity % 74 % 90 %
Vitesse du vent : 0 km/h 0 km/h 4.2 km/h
Rafale : 0 km/h - -
Direction :- - South
Pression : 0 hPa 34520.3 hPa -
Précipitations : 7.62 mm    
Historical Graphs
 
 
Tableau de données pour mars 16, 2017
Heure Tempé Pt rosée Pression Vent Vitesse Rafale Humidité Taux pluie (/hr) Soleil
-17.8 °C -17.8 °C 0 hPa Calm     Humidity % 0 mm SolarRadiationWatts/m^2 W/m2 Conditions
00:00 -13.1 °C -13.6 °C 34797.9 hPa ENE 12.9 km/h 23.3 km/h 95 % 0 mm 0 W/m2
00:10 -13.2 °C -13.6 °C 34797.9 hPa NE 7.7 km/h 18.2 km/h 95 % 0 mm 0 W/m2
00:15 -13.2 °C -13.6 °C 34797.9 hPa NE 5.1 km/h 18.2 km/h 95 % 0 mm 0 W/m2
00:25 -13.2 °C -13.7 °C 34784.4 hPa ENE 5.1 km/h 20.8 km/h 95 % 0 mm 0 W/m2
00:30 -13.3 °C -13.7 °C 34784.4 hPa NE 10.3 km/h 15.6 km/h 95 % 0 mm 0 W/m2
00:35 -13.3 °C -13.8 °C 34784.4 hPa NE 10.3 km/h 20.8 km/h 95 % 0 mm 0 W/m2
00:40 -13.3 °C -13.8 °C 34784.4 hPa ENE 10.3 km/h 20.8 km/h 95 % 0 mm 0 W/m2
00:45 -13.4 °C -13.8 °C 34774.2 hPa NE 2.6 km/h 20.8 km/h 95 % 0 mm 0 W/m2
00:50 -13.4 °C -13.8 °C 34774.2 hPa NE 5.1 km/h 20.8 km/h 95 % 0 mm 0 W/m2
00:55 -13.4 °C -13.8 °C 34774.2 hPa NE 10.3 km/h 18.2 km/h 95 % 0 mm 0 W/m2
01:00 -13.4 °C -13.8 °C 34774.2 hPa ENE 10.3 km/h 18.2 km/h 95 % 0 mm 0 W/m2
01:05 -13.5 °C -13.9 °C 34760.7 hPa East 12.9 km/h 25.9 km/h 95 % 0 mm 0 W/m2
01:10 -13.5 °C -13.9 °C 34760.7 hPa East 7.7 km/h 25.9 km/h 95 % 0 mm 0 W/m2
01:15 -13.6 °C -13.9 °C 34760.7 hPa Calm   20.8 km/h 95 % 0 mm 0 W/m2
01:20 -13.6 °C -13.9 °C 34760.7 hPa NE 5.1 km/h 20.8 km/h 95 % 0 mm 0 W/m2
01:25 -13.6 °C -13.9 °C 34750.5 hPa ENE 18.2 km/h 23.3 km/h 96 % 0 mm 0 W/m2
01:30 -13.6 °C -13.9 °C 34750.5 hPa ENE 10.3 km/h 23.3 km/h 96 % 0 mm 0 W/m2
01:35 -13.7 °C -14.1 °C 34750.5 hPa ENE 5.1 km/h 18.2 km/h 95 % 0 mm 0 W/m2
01:40 -13.7 °C -14 °C 34750.5 hPa East 7.7 km/h 20.8 km/h 96 % 0 mm 0 W/m2
01:45 -13.7 °C -14.1 °C 34750.5 hPa ENE 2.6 km/h 20.8 km/h 96 % 0 mm 0 W/m2
01:55 -13.7 °C -14.1 °C 34740.4 hPa East 2.6 km/h 18.2 km/h 96 % 0 mm 0 W/m2
02:00 -13.8 °C -14.1 °C 34740.4 hPa ENE 2.6 km/h 18.2 km/h 96 % 0 mm 0 W/m2
02:05 -13.8 °C -14.2 °C 34740.4 hPa Calm   18.2 km/h 96 % 0 mm 0 W/m2
02:10 -13.8 °C -14.1 °C 34740.4 hPa ENE 2.6 km/h 15.6 km/h 96 % 0 mm 0 W/m2
02:15 -13.8 °C -14.1 °C 34740.4 hPa Calm   15.6 km/h 96 % 0 mm 0 W/m2
02:20 -13.8 °C -14.2 °C 34740.4 hPa Calm   15.6 km/h 96 % 0 mm 0 W/m2
02:25 -13.8 °C -14.2 °C 34726.8 hPa NE 5.1 km/h 15.6 km/h 96 % 0 mm 0 W/m2
02:30 -13.9 °C -14.2 °C 34726.8 hPa ENE 10.3 km/h 12.9 km/h 96 % 0 mm 0 W/m2
02:40 -13.9 °C -14.2 °C 34726.8 hPa Calm   10.3 km/h 96 % 0 mm 0 W/m2
02:45 -14.1 °C -14.4 °C 34726.8 hPa Calm   2.6 km/h 96 % 0 mm 0 W/m2
02:50 -14.2 °C -14.6 °C 34726.8 hPa Calm   2.6 km/h 96 % 0 mm 0 W/m2
02:55 -14.3 °C -14.6 °C 34726.8 hPa Calm   5.1 km/h 96 % 0 mm 0 W/m2
03:00 -14.4 °C -14.8 °C 34716.7 hPa ENE 2.6 km/h 7.7 km/h 96 % 0 mm 0 W/m2
03:05 -14.6 °C -14.9 °C 34716.7 hPa ENE 5.1 km/h 7.7 km/h 96 % 0 mm 0 W/m2
03:10 -14.8 °C -15.2 °C 34716.7 hPa ENE 2.6 km/h 5.1 km/h 96 % 0 mm 0 W/m2
03:15 -14.9 °C -15.2 °C 34716.7 hPa Calm   5.1 km/h 96 % 0 mm 0 W/m2
03:25 -15 °C -15.3 °C 34703.1 hPa Calm   5.1 km/h 96 % 0 mm 0 W/m2
03:30 -15.1 °C -15.3 °C 34703.1 hPa ENE 2.6 km/h 5.1 km/h 96 % 0 mm 0 W/m2
03:35 -15.1 °C -15.3 °C 34703.1 hPa Calm   5.1 km/h 97 % 0 mm 0 W/m2
03:40 -15.1 °C -15.3 °C 34693 hPa Calm   2.6 km/h 97 % 0 mm 0 W/m2
03:45 -15.1 °C -15.3 °C 34693 hPa Calm   2.6 km/h 97 % 0 mm 0 W/m2
03:50 -15.1 °C -15.3 °C 34693 hPa Calm     97 % 0 mm 0 W/m2
03:55 -15.2 °C -15.4 °C 34693 hPa ENE 2.6 km/h 7.7 km/h 97 % 0 mm 0 W/m2
04:00 -15.1 °C -15.4 °C 34693 hPa Calm   7.7 km/h 97 % 0 mm 0 W/m2
04:10 -15.2 °C -15.4 °C 34682.8 hPa Calm   2.6 km/h 97 % 0 mm 0 W/m2
04:20 -15.2 °C -15.5 °C 34682.8 hPa ENE 2.6 km/h 7.7 km/h 97 % 0 mm 0 W/m2
04:25 -15.4 °C -15.6 °C 34682.8 hPa NE 2.6 km/h 7.7 km/h 97 % 0 mm 0 W/m2
04:30 -15.4 °C -15.6 °C 34682.8 hPa Calm   7.7 km/h 97 % 0 mm 0 W/m2
04:35 -15.3 °C -15.6 °C 34682.8 hPa Calm   5.1 km/h 97 % 0 mm 0 W/m2
04:40 -15.3 °C -15.6 °C 34669.3 hPa Calm   7.7 km/h 97 % 0 mm 0 W/m2
04:45 -15.4 °C -15.6 °C 34669.3 hPa NE 2.6 km/h 7.7 km/h 97 % 0 mm 0 W/m2
04:55 -15.2 °C -15.4 °C 34669.3 hPa NE 2.6 km/h 7.7 km/h 97 % 0 mm 0 W/m2
05:00 -14.9 °C -15.1 °C 34669.3 hPa ENE 2.6 km/h 10.3 km/h 98 % 0 mm 0 W/m2
05:05 -14.8 °C -14.9 °C 34669.3 hPa Calm   10.3 km/h 98 % 0 mm 0 W/m2
05:10 -14.8 °C -14.9 °C 34669.3 hPa ENE 2.6 km/h 10.3 km/h 98 % 0 mm 0 W/m2
05:15 -14.7 °C -14.9 °C 34669.3 hPa Calm   10.3 km/h 98 % 0 mm 0 W/m2
05:20 -14.7 °C -14.8 °C 34669.3 hPa ENE 5.1 km/h 7.7 km/h 98 % 0 mm 0 W/m2
05:25 -14.7 °C -14.9 °C 34669.3 hPa ENE 2.6 km/h 7.7 km/h 97 % 0 mm 0 W/m2
05:30 -14.7 °C -14.8 °C 34669.3 hPa ENE 5.1 km/h 7.7 km/h 98 % 0 mm 0 W/m2
05:35 -14.8 °C -15 °C 34659.1 hPa ENE 2.6 km/h 10.3 km/h 97 % 0 mm 0 W/m2
05:40 -14.7 °C -14.9 °C 34659.1 hPa Calm   10.3 km/h 98 % 0 mm 0 W/m2
05:45 -14.8 °C -14.9 °C 34659.1 hPa ENE 2.6 km/h 7.7 km/h 98 % 0 mm 0 W/m2
05:50 -14.8 °C -14.9 °C 34659.1 hPa ENE 5.1 km/h 7.7 km/h 98 % 0 mm 0 W/m2
05:55 -14.8 °C -14.9 °C 34659.1 hPa ENE 2.6 km/h 7.7 km/h 98 % 0 mm 0 W/m2
06:00 -14.9 °C -15.1 °C 34659.1 hPa ENE 5.1 km/h 7.7 km/h 97 % 0 mm 0 W/m2
06:05 -14.8 °C -15 °C 34659.1 hPa ENE 5.1 km/h 7.7 km/h 98 % 0 mm 0 W/m2
06:10 -14.8 °C -15 °C 34659.1 hPa Calm   7.7 km/h 98 % 0 mm 0 W/m2
06:15 -14.8 °C -14.9 °C 34659.1 hPa Calm   7.7 km/h 98 % 0 mm 0 W/m2
06:25 -15.1 °C -15.4 °C 34659.1 hPa ENE 2.6 km/h 2.6 km/h 97 % 0 mm 0 W/m2
06:30 -15.3 °C -15.5 °C 34659.1 hPa Calm   5.1 km/h 97 % 0 mm 0 W/m2
06:35 -15.3 °C -15.6 °C 34659.1 hPa Calm   5.1 km/h 97 % 0 mm 0 W/m2
06:40 -15.4 °C -15.6 °C 34645.6 hPa ENE 2.6 km/h 5.1 km/h 97 % 0 mm 0 W/m2
06:45 -15.3 °C -15.4 °C 34645.6 hPa Calm   5.1 km/h 98 % 0 mm 0 W/m2
06:50 -15.3 °C -15.5 °C 34645.6 hPa Calm   5.1 km/h 98 % 0 mm 0 W/m2
06:55 -15.3 °C -15.4 °C 34659.1 hPa ENE 2.6 km/h 5.1 km/h 98 % 0 mm 0 W/m2
07:00 -15.2 °C -15.3 °C 34645.6 hPa ENE 2.6 km/h 7.7 km/h 98 % 0 mm 0 W/m2
07:10 -15.2 °C -15.3 °C 34645.6 hPa Calm   5.1 km/h 98 % 0 mm 0 W/m2
07:15 -15.2 °C -15.4 °C 34645.6 hPa Calm   2.6 km/h 98 % 0 mm 0 W/m2
07:20 -15.4 °C -15.6 °C 34645.6 hPa ENE 2.6 km/h 5.1 km/h 98 % 0 mm 0 W/m2
07:25 -15.4 °C -15.6 °C 34645.6 hPa ENE 5.1 km/h 7.7 km/h 98 % 0 mm 7 W/m2
07:30 -15.5 °C -15.7 °C 34645.6 hPa Calm   7.7 km/h 98 % 0 mm 9 W/m2
07:35 -15.4 °C -15.6 °C 34645.6 hPa ENE 2.6 km/h 7.7 km/h 98 % 0 mm 12 W/m2
07:40 -15.6 °C -15.7 °C 34645.6 hPa Calm   5.1 km/h 98 % 0 mm 16 W/m2
07:45 -15.5 °C -15.7 °C 34645.6 hPa Calm   7.7 km/h 98 % 0 mm 21 W/m2
07:50 -15.2 °C -15.4 °C 34645.6 hPa Calm   7.7 km/h 98 % 0 mm 28 W/m2
07:55 -14.9 °C -15.1 °C 34645.6 hPa Calm   7.7 km/h 98 % 0 mm 30 W/m2
08:00 -14.8 °C -15 °C 34645.6 hPa ENE 2.6 km/h 7.7 km/h 98 % 7.62 mm 35 W/m2
08:05 -14.8 °C -14.9 °C 34645.6 hPa Calm   5.1 km/h 98 % 7.62 mm 37 W/m2
08:10 -14.8 °C -14.9 °C 34645.6 hPa ENE 2.6 km/h 5.1 km/h 98 % 7.62 mm 39 W/m2
08:15 -14.7 °C -14.8 °C 34645.6 hPa ENE 2.6 km/h 10.3 km/h 98 % 7.62 mm 42 W/m2
08:20 -14.6 °C -14.7 °C 34645.6 hPa Calm   10.3 km/h 98 % 7.62 mm 46 W/m2
08:25 -14.4 °C -14.6 °C 34645.6 hPa East 5.1 km/h 12.9 km/h 98 % 7.62 mm 90 W/m2
08:30 -14.3 °C -14.5 °C 34645.6 hPa East 5.1 km/h 12.9 km/h 98 % 7.62 mm 132 W/m2
08:40 -14.2 °C -14.3 °C 34645.6 hPa East 10.3 km/h 12.9 km/h 98 % 7.62 mm 54 W/m2
08:45 -14.1 °C -14.3 °C 34645.6 hPa East 5.1 km/h 12.9 km/h 98 % 7.62 mm 56 W/m2
08:50 -14.1 °C -14.2 °C 34645.6 hPa East 7.7 km/h 18.2 km/h 98 % 7.62 mm 58 W/m2
08:55 -13.9 °C -14.1 °C 34645.6 hPa East 5.1 km/h 18.2 km/h 98 % 7.62 mm 56 W/m2
09:00 -13.9 °C -14.1 °C 34645.6 hPa ESE 10.3 km/h 18.2 km/h 98 % 0 mm 60 W/m2
09:05 -13.8 °C -14 °C 34645.6 hPa Calm   20.8 km/h 98 % 0 mm 60 W/m2
09:10 -13.8 °C -13.9 °C 34645.6 hPa ESE 2.6 km/h 20.8 km/h 98 % 0 mm 63 W/m2
09:15 -13.7 °C -13.9 °C 34645.6 hPa Calm   15.6 km/h 98 % 0 mm 65 W/m2
09:25 -13.4 °C -13.6 °C 34645.6 hPa ENE 7.7 km/h 20.8 km/h 98 % 0 mm 69 W/m2
09:30 -13.4 °C -13.6 °C 34645.6 hPa East 7.7 km/h 20.8 km/h 98 % 0 mm 315 W/m2
09:35 -13.2 °C -13.4 °C 34635.4 hPa East 7.7 km/h 18.2 km/h 98 % 0 mm 334 W/m2
09:40 -13 °C -13.2 °C 34635.4 hPa East 2.6 km/h 18.2 km/h 98 % 0 mm 350 W/m2
09:45 -12.8 °C -13 °C 34635.4 hPa East 7.7 km/h 18.2 km/h 98 % 0 mm 362 W/m2
09:50 -12.7 °C -12.8 °C 34635.4 hPa East 7.7 km/h 18.2 km/h 98 % 0 mm 373 W/m2
09:55 -12.4 °C -12.7 °C 34635.4 hPa ESE 5.1 km/h 18.2 km/h 97 % 0 mm 387 W/m2
10:00 -12.4 °C -12.7 °C 34635.4 hPa East 12.9 km/h 18.2 km/h 96 % 0 mm 403 W/m2
10:10 -12 °C -12.4 °C 34635.4 hPa East 7.7 km/h 20.8 km/h 95 % 0 mm 420 W/m2
10:15 -11.9 °C -12.5 °C 34635.4 hPa ENE 7.7 km/h 18.2 km/h 93 % 0 mm 434 W/m2
10:25 -11.6 °C -12.5 °C 34635.4 hPa ESE 2.6 km/h 18.2 km/h 90 % 0 mm 459 W/m2
10:30 -11.4 °C -12.4 °C 34635.4 hPa East 5.1 km/h 20.8 km/h 89 % 0 mm 475 W/m2
10:35 -11.3 °C -12.4 °C 34625.2 hPa Calm   20.8 km/h 88 % 0 mm 489 W/m2
10:40 -11.2 °C -12.4 °C 34625.2 hPa SSE 2.6 km/h 18.2 km/h 87 % 0 mm 496 W/m2
10:45 -11.1 °C -12.3 °C 34625.2 hPa ESE 2.6 km/h 18.2 km/h 86 % 0 mm 510 W/m2
10:50 -10.9 °C -12.3 °C 34625.2 hPa ESE 2.6 km/h 12.9 km/h 85 % 0 mm 519 W/m2
10:55 -10.9 °C -12.3 °C 34625.2 hPa SE 2.6 km/h 18.2 km/h 84 % 0 mm 520 W/m2
11:00 -10.8 °C -12.2 °C 34625.2 hPa East 12.9 km/h 18.2 km/h 85 % 0 mm 531 W/m2
11:05 -10.7 °C -12.4 °C 34625.2 hPa ESE 7.7 km/h 18.2 km/h 82 % 0 mm 540 W/m2
11:10 -10.6 °C -12.2 °C 34625.2 hPa East 5.1 km/h 18.2 km/h 83 % 0 mm 555 W/m2
11:15 -10.4 °C -11.9 °C 34625.2 hPa ESE 5.1 km/h 15.6 km/h 83 % 0 mm 570 W/m2
11:20 -10.3 °C -11.9 °C 34611.7 hPa Calm   12.9 km/h 82 % 0 mm 575 W/m2
11:25 -10.4 °C -12.2 °C 34625.2 hPa ESE 7.7 km/h 12.9 km/h 81 % 0 mm 584 W/m2
11:30 -10.3 °C -12.2 °C 34611.7 hPa ESE 2.6 km/h 10.3 km/h 80 % 0 mm 596 W/m2
11:35 -10.1 °C -11.9 °C 34625.2 hPa ESE 7.7 km/h 10.3 km/h 80 % 0 mm 601 W/m2
11:40 -9.9 °C -11.8 °C 34625.2 hPa SSE 10.3 km/h 10.3 km/h 80 % 0 mm 610 W/m2
11:45 -9.9 °C -11.9 °C 34611.7 hPa SSE 7.7 km/h 10.3 km/h 79 % 0 mm 621 W/m2
11:50 -9.8 °C -11.8 °C 34611.7 hPa South 5.1 km/h 12.9 km/h 79 % 0 mm 624 W/m2
11:55 -9.7 °C -11.8 °C 34611.7 hPa South 12.9 km/h 12.9 km/h 78 % 0 mm 628 W/m2
12:00 -9.6 °C -11.8 °C 34611.7 hPa South 5.1 km/h 12.9 km/h 77 % 0 mm 635 W/m2
12:05 -9.6 °C -12.1 °C 34611.7 hPa SE 5.1 km/h 12.9 km/h 75 % 0 mm 640 W/m2
12:10 -9.6 °C -11.9 °C 34611.7 hPa ESE 2.6 km/h 12.9 km/h 76 % 0 mm 647 W/m2
12:15 -9.3 °C -11.6 °C 34611.7 hPa Calm   7.7 km/h 76 % 0 mm 649 W/m2
12:20 -9.6 °C -11.8 °C 34611.7 hPa West 7.7 km/h 12.9 km/h 77 % 0 mm 645 W/m2
12:25 -9.5 °C -11.2 °C 34611.7 hPa WNW 7.7 km/h 15.6 km/h 82 % 0 mm 656 W/m2
12:30 -9.3 °C -11.5 °C 34601.5 hPa WNW 10.3 km/h 18.2 km/h 77 % 0 mm 654 W/m2
12:40 -9.2 °C -11.6 °C 34601.5 hPa NW 7.7 km/h 15.6 km/h 76 % 0 mm 659 W/m2
12:45 -9.5 °C -11.4 °C 34601.5 hPa NW 10.3 km/h 15.6 km/h 80 % 0 mm 668 W/m2
12:50 -9.3 °C -11.6 °C 34601.5 hPa WNW 7.7 km/h 15.6 km/h 77 % 0 mm 668 W/m2
12:55 -9.2 °C -11.4 °C 34601.5 hPa NW 12.9 km/h 15.6 km/h 77 % 0 mm 671 W/m2
13:00 -9.3 °C -11.5 °C 34601.5 hPa NW 7.7 km/h 15.6 km/h 77 % 0 mm 673 W/m2
13:10 -9.1 °C -11.3 °C 34591.4 hPa NW 12.9 km/h 12.9 km/h 77 % 0 mm 673 W/m2
13:20 -9 °C -10.9 °C 34591.4 hPa NNW 5.1 km/h 12.9 km/h 80 % 0 mm 670 W/m2
13:25 -8.9 °C -11.1 °C 34591.4 hPa NW 2.6 km/h 12.9 km/h 78 % 0 mm 671 W/m2
13:30 -8.7 °C -11.2 °C 34591.4 hPa West 7.7 km/h 15.6 km/h 75 % 0 mm 670 W/m2
13:40 -8.9 °C -11.4 °C 34591.4 hPa WNW 5.1 km/h 18.2 km/h 75 % 0 mm 668 W/m2
13:45 -9.3 °C -11.6 °C 34591.4 hPa West 12.9 km/h 20.8 km/h 76 % 0 mm 664 W/m2
13:55 -9.4 °C -11.4 °C 34591.4 hPa WNW 7.7 km/h 18.2 km/h 79 % 0 mm 657 W/m2
14:00 -9.2 °C -11.4 °C 34577.8 hPa WSW 10.3 km/h 15.6 km/h 77 % 0 mm 652 W/m2
14:05 -9.3 °C -11.6 °C 34577.8 hPa WSW 15.6 km/h 18.2 km/h 76 % 0 mm 649 W/m2
14:10 -9.3 °C -11.7 °C 34577.8 hPa WSW 15.6 km/h 18.2 km/h 76 % 0 mm 643 W/m2
14:15 -9.6 °C -11.9 °C 34577.8 hPa West 12.9 km/h 18.2 km/h 76 % 0 mm 638 W/m2
14:20 -9.4 °C -11.7 °C 34577.8 hPa SW 5.1 km/h 15.6 km/h 76 % 0 mm 633 W/m2
14:25 -9 °C -11.4 °C 34577.8 hPa West 7.7 km/h 15.6 km/h 75 % 0 mm 629 W/m2
14:30 -9.3 °C -11.8 °C 34577.8 hPa West 10.3 km/h 15.6 km/h 74 % 0 mm 624 W/m2
14:35 -9.4 °C -11.8 °C 34577.8 hPa WNW 5.1 km/h 15.6 km/h 76 % 0 mm 617 W/m2
14:40 -9.4 °C -11.9 °C 34577.8 hPa West 12.9 km/h 18.2 km/h 75 % 0 mm 610 W/m2
14:45 -9.3 °C -11.8 °C 34577.8 hPa WSW 10.3 km/h 18.2 km/h 74 % 0 mm 603 W/m2
14:50 -9.5 °C -12.1 °C 34577.8 hPa WSW 20.8 km/h 20.8 km/h 74 % 0 mm 598 W/m2
14:55 -9.6 °C -12.1 °C 34577.8 hPa WSW 15.6 km/h 23.3 km/h 74 % 0 mm 591 W/m2
15:00 -9.6 °C -12.1 °C 34577.8 hPa West 15.6 km/h 23.3 km/h 74 % 0 mm 582 W/m2
15:05 -9.4 °C -12 °C 34567.7 hPa WSW 2.6 km/h 20.8 km/h 74 % 0 mm 570 W/m2
15:10 -9.4 °C -12 °C 34567.7 hPa SW 12.9 km/h 20.8 km/h 74 % 0 mm 566 W/m2
15:15 -9.7 °C -11.9 °C 34567.7 hPa WSW 18.2 km/h 20.8 km/h 77 % 0 mm 555 W/m2
15:20 -9.7 °C -11.7 °C 34567.7 hPa NW 2.6 km/h 20.8 km/h 79 % 0 mm 545 W/m2
15:25 -9.7 °C -11.8 °C 34567.7 hPa WSW 2.6 km/h 20.8 km/h 78 % 0 mm 536 W/m2
15:30 -9.7 °C -11.9 °C 34567.7 hPa West 10.3 km/h 20.8 km/h 77 % 0 mm 529 W/m2
15:35 -9.7 °C -11.8 °C 34554.1 hPa WSW 5.1 km/h 12.9 km/h 78 % 0 mm 519 W/m2
15:40 -9.8 °C -11.8 °C 34554.1 hPa WSW 7.7 km/h 15.6 km/h 79 % 0 mm 508 W/m2
15:45 -9.8 °C -11.9 °C 34554.1 hPa WSW 7.7 km/h 18.2 km/h 78 % 0 mm 499 W/m2
15:50 -9.8 °C -11.9 °C 34554.1 hPa West 7.7 km/h 18.2 km/h 78 % 0 mm 487 W/m2
15:55 -9.8 °C -11.9 °C 34554.1 hPa West 7.7 km/h 18.2 km/h 78 % 0 mm 475 W/m2
16:00 -9.6 °C -11.7 °C 34544 hPa West 10.3 km/h 12.9 km/h 78 % 0 mm 464 W/m2
16:10 -9.6 °C -11.7 °C 34544 hPa WSW 7.7 km/h 15.6 km/h 78 % 0 mm 443 W/m2
16:15 -9.7 °C -11.7 °C 34544 hPa West 12.9 km/h 18.2 km/h 79 % 0 mm 429 W/m2
16:25 -9.6 °C -11.8 °C 34544 hPa SW 2.6 km/h 18.2 km/h 77 % 0 mm 404 W/m2
16:30 -9.6 °C -11.9 °C 34544 hPa WSW 5.1 km/h 15.6 km/h 76 % 0 mm 390 W/m2
16:35 -9.7 °C -11.8 °C 34544 hPa West 7.7 km/h 15.6 km/h 78 % 0 mm 378 W/m2
16:40 -9.6 °C -11.7 °C 34544 hPa WSW 5.1 km/h 15.6 km/h 78 % 0 mm 334 W/m2
16:45 -9.6 °C -11.7 °C 34544 hPa NW 5.1 km/h 12.9 km/h 78 % 0 mm 202 W/m2
16:55 -9.8 °C -11.9 °C 34544 hPa WNW 7.7 km/h 12.9 km/h 78 % 0 mm 169 W/m2
17:00 -9.7 °C -11.9 °C 34544 hPa West 10.3 km/h 15.6 km/h 77 % 0 mm 139 W/m2
17:05 -9.8 °C -11.9 °C 34533.8 hPa WNW 7.7 km/h 15.6 km/h 78 % 0 mm 146 W/m2
17:10 -10.1 °C -12.1 °C 34533.8 hPa West 7.7 km/h 12.9 km/h 78 % 0 mm 142 W/m2
17:15 -10.2 °C -12.1 °C 34533.8 hPa WNW 10.3 km/h 12.9 km/h 80 % 0 mm 121 W/m2
17:20 -10.2 °C -12 °C 34533.8 hPa NW 10.3 km/h 15.6 km/h 81 % 0 mm 163 W/m2
17:25 -10.2 °C -12.1 °C 34533.8 hPa West 10.3 km/h 15.6 km/h 80 % 0 mm 151 W/m2
17:30 -10.3 °C -12.2 °C 34533.8 hPa West 2.6 km/h 12.9 km/h 80 % 0 mm 127 W/m2
17:35 -10.3 °C -12.4 °C 34533.8 hPa West 2.6 km/h 12.9 km/h 78 % 0 mm 70 W/m2
17:40 -10.2 °C -12.3 °C 34533.8 hPa West 10.3 km/h 12.9 km/h 78 % 0 mm 51 W/m2
17:45 -10.3 °C -12.4 °C 34533.8 hPa Calm   15.6 km/h 78 % 0 mm 67 W/m2
17:50 -10.4 °C -12.4 °C 34533.8 hPa West 5.1 km/h 15.6 km/h 78 % 0 mm 44 W/m2
17:55 -10.4 °C -12.4 °C 34533.8 hPa Calm   15.6 km/h 79 % 0 mm 42 W/m2
18:00 -10.6 °C -12.4 °C 34533.8 hPa WSW 7.7 km/h 12.9 km/h 80 % 0 mm 74 W/m2
18:05 -10.7 °C -12.4 °C 34533.8 hPa West 7.7 km/h 12.9 km/h 81 % 0 mm 105 W/m2
18:10 -10.8 °C -12.4 °C 34533.8 hPa WNW 2.6 km/h 12.9 km/h 82 % 0 mm 49 W/m2
18:15 -10.9 °C -12.4 °C 34533.8 hPa WNW 2.6 km/h 10.3 km/h 84 % 0 mm 35 W/m2
18:25 -11.1 °C -12.4 °C 34533.8 hPa Calm   12.9 km/h 85 % 0 mm 32 W/m2
18:30 -11.2 °C -12.6 °C 34520.3 hPa Calm   10.3 km/h 85 % 0 mm 28 W/m2
18:35 -11.2 °C -12.6 °C 34520.3 hPa Calm   2.6 km/h 85 % 0 mm 26 W/m2
18:40 -11.3 °C -12.6 °C 34520.3 hPa WNW 2.6 km/h 2.6 km/h 86 % 0 mm 23 W/m2
18:45 -11.5 °C -12.7 °C 34520.3 hPa WNW 2.6 km/h 5.1 km/h 86 % 0 mm 19 W/m2
18:50 -11.4 °C -12.7 °C 34520.3 hPa Calm   5.1 km/h 86 % 0 mm 18 W/m2
18:55 -11.5 °C -12.7 °C 34520.3 hPa WNW 2.6 km/h 5.1 km/h 86 % 0 mm 14 W/m2
19:00 -11.8 °C -12.8 °C 34533.8 hPa Calm   5.1 km/h 88 % 0 mm 12 W/m2
19:10 -11.8 °C -12.8 °C 34520.3 hPa Calm   5.1 km/h 89 % 0 mm 7 W/m2
19:15 -11.9 °C -12.8 °C 34520.3 hPa Calm   5.1 km/h 89 % 0 mm 0 W/m2
19:20 -12.3 °C -13.2 °C 34533.8 hPa Calm   5.1 km/h 89 % 0 mm 0 W/m2
19:25 -12.4 °C -13.2 °C 34533.8 hPa Calm   2.6 km/h 91 % 0 mm 0 W/m2
19:30 -12.6 °C -13.4 °C 34533.8 hPa Calm   2.6 km/h 91 % 0 mm 0 W/m2
19:35 -12.7 °C -13.4 °C 34533.8 hPa Calm     92 % 0 mm 0 W/m2
19:40 -12.9 °C -13.6 °C 34533.8 hPa Calm     92 % 0 mm 0 W/m2
19:45 -13 °C -13.6 °C 34533.8 hPa Calm     93 % 0 mm 0 W/m2
19:55 -13.1 °C -13.6 °C 34533.8 hPa Calm     94 % 0 mm 0 W/m2
20:00 -13.2 °C -13.7 °C 34533.8 hPa Calm     94 % 0 mm 0 W/m2
20:05 -13.2 °C -13.7 °C 34533.8 hPa Calm     94 % 0 mm 0 W/m2
20:10 -13.2 °C -13.6 °C 34533.8 hPa Calm     95 % 0 mm 0 W/m2
20:15 -13.2 °C -13.7 °C 34533.8 hPa Calm     94 % 0 mm 0 W/m2
20:20 -13.3 °C -13.8 °C 34533.8 hPa Calm     94 % 0 mm 0 W/m2
20:25 -13.3 °C -13.8 °C 34533.8 hPa Calm     95 % 0 mm 0 W/m2
20:30 -13.4 °C -13.8 °C 34544 hPa Calm     95 % 0 mm 0 W/m2
20:40 -13.4 °C -13.8 °C 34544 hPa Calm     95 % 0 mm 0 W/m2
20:45 -13.6 °C -13.9 °C 34544 hPa Calm     95 % 0 mm 0 W/m2
20:50 -13.8 °C -14.2 °C 34544 hPa Calm     95 % 0 mm 0 W/m2
20:55 -14 °C -14.4 °C 34544 hPa Calm     95 % 0 mm 0 W/m2
21:00 -14 °C -14.4 °C 34544 hPa Calm     95 % 0 mm 0 W/m2
21:05 -14 °C -14.3 °C 34544 hPa Calm     96 % 0 mm 0 W/m2
21:10 -14.1 °C -14.4 °C 34544 hPa Calm     96 % 0 mm 0 W/m2
21:15 -14.1 °C -14.4 °C 34544 hPa Calm     96 % 0 mm 0 W/m2
21:20 -14.3 °C -14.6 °C 34544 hPa Calm     96 % 0 mm 0 W/m2
21:25 -14.2 °C -14.5 °C 34544 hPa Calm     96 % 0 mm 0 W/m2
21:30 -14.2 °C -14.6 °C 34554.1 hPa Calm   2.6 km/h 96 % 0 mm 0 W/m2
21:35 -14.2 °C -14.5 °C 34544 hPa WNW 2.6 km/h 7.7 km/h 96 % 0 mm 0 W/m2
21:40 -14.1 °C -14.3 °C 34544 hPa Calm   7.7 km/h 97 % 0 mm 0 W/m2
21:45 -14.1 °C -14.3 °C 34554.1 hPa Calm   2.6 km/h 97 % 0 mm 0 W/m2
21:50 -14 °C -14.3 °C 34544 hPa Calm   2.6 km/h 97 % 0 mm 0 W/m2
21:55 -13.9 °C -14.1 °C 34544 hPa Calm     97 % 0 mm 0 W/m2
22:00 -13.9 °C -14.1 °C 34544 hPa Calm     97 % 0 mm 0 W/m2
22:10 -14.4 °C -14.7 °C 34554.1 hPa Calm     96 % 0 mm 0 W/m2
22:15 -14.3 °C -14.6 °C 34554.1 hPa Calm     97 % 0 mm 0 W/m2
22:20 -14.3 °C -14.7 °C 34554.1 hPa Calm     96 % 0 mm 0 W/m2
22:25 -14.4 °C -14.6 °C 34554.1 hPa Calm     97 % 0 mm 0 W/m2
22:30 -14.4 °C -14.7 °C 34554.1 hPa Calm     96 % 0 mm 0 W/m2
22:35 -14.3 °C -14.6 °C 34554.1 hPa Calm     97 % 0 mm 0 W/m2
22:40 -14.3 °C -14.5 °C 34554.1 hPa Calm     97 % 0 mm 0 W/m2
22:50 -14.6 °C -14.9 °C 34554.1 hPa Calm     96 % 0 mm 0 W/m2
22:55 -14.6 °C -14.8 °C 34554.1 hPa Calm     97 % 0 mm 0 W/m2
23:00 -14.8 °C -15.2 °C 34554.1 hPa Calm     96 % 0 mm 0 W/m2
23:05 -15.1 °C -15.4 °C 34554.1 hPa Calm   2.6 km/h 96 % 0 mm 0 W/m2
23:10 -15.2 °C -15.5 °C 34554.1 hPa Calm   2.6 km/h 96 % 0 mm 0 W/m2
23:15 -15.1 °C -15.3 °C 34554.1 hPa NNW 2.6 km/h 10.3 km/h 97 % 0 mm 0 W/m2
23:20 -15.1 °C -15.3 °C 34554.1 hPa NNW 5.1 km/h 12.9 km/h 97 % 0 mm 0 W/m2
23:25 -14.8 °C -15.1 °C 34554.1 hPa NNW 2.6 km/h 12.9 km/h 97 % 0 mm 0 W/m2
23:30 -14.6 °C -14.9 °C 34554.1 hPa NW 2.6 km/h 10.3 km/h 97 % 0 mm 0 W/m2
23:35 -14.5 °C -14.7 °C 34554.1 hPa NW 2.6 km/h 5.1 km/h 97 % 0 mm 0 W/m2
23:40 -14.5 °C -14.8 °C 34554.1 hPa NW 2.6 km/h 5.1 km/h 97 % 0 mm 0 W/m2
23:45 -14.4 °C -14.7 °C 34554.1 hPa NW 2.6 km/h 5.1 km/h 97 % 0 mm 0 W/m2
23:50 -14.7 °C -14.9 °C 34567.7 hPa NNW 7.7 km/h 23.3 km/h 97 % 0 mm 0 W/m2
23:55 -14.3 °C -14.5 °C 34567.7 hPa NNE 10.3 km/h 23.3 km/h 98 % 0 mm 0 W/m2
Avec l'autorisation de Weather Underground - 1.5 mb